sensor_id;sensor_type;location;lat;lon;timestamp;temperature;humidity
23815;DHT22;12088;53.078;8.720;2023-07-02T00:01:27;15.40;99.90
23815;DHT22;12088;53.078;8.720;2023-07-02T00:03:53;15.40;99.90
23815;DHT22;12088;53.078;8.720;2023-07-02T00:06:18;15.40;99.90
23815;DHT22;12088;53.078;8.720;2023-07-02T00:08:44;15.40;99.90
23815;DHT22;12088;53.078;8.720;2023-07-02T00:11:09;15.30;99.90
23815;DHT22;12088;53.078;8.720;2023-07-02T00:13:38;15.30;99.90
23815;DHT22;12088;53.078;8.720;2023-07-02T00:16:04;15.30;99.90
23815;DHT22;12088;53.078;8.720;2023-07-02T00:18:29;15.40;99.90
23815;DHT22;12088;53.078;8.720;2023-07-02T00:21:02;15.30;99.90
23815;DHT22;12088;53.078;8.720;2023-07-02T00:23:28;15.40;99.90
23815;DHT22;12088;53.078;8.720;2023-07-02T00:25:54;15.40;99.90
23815;DHT22;12088;53.078;8.720;2023-07-02T00:28:20;15.40;99.90
23815;DHT22;12088;53.078;8.720;2023-07-02T00:30:45;15.40;99.90
23815;DHT22;12088;53.078;8.720;2023-07-02T00:33:11;15.50;99.90
23815;DHT22;12088;53.078;8.720;2023-07-02T00:35:37;15.50;99.90
23815;DHT22;12088;53.078;8.720;2023-07-02T00:38:02;15.50;99.90
23815;DHT22;12088;53.078;8.720;2023-07-02T00:40:28;15.50;99.90
23815;DHT22;12088;53.078;8.720;2023-07-02T00:42:53;15.50;99.90
23815;DHT22;12088;53.078;8.720;2023-07-02T00:45:19;15.60;99.90
23815;DHT22;12088;53.078;8.720;2023-07-02T00:47:45;15.60;99.90
23815;DHT22;12088;53.078;8.720;2023-07-02T00:50:11;15.60;99.90
23815;DHT22;12088;53.078;8.720;2023-07-02T00:52:37;15.60;99.90
23815;DHT22;12088;53.078;8.720;2023-07-02T00:55:03;15.60;99.90
23815;DHT22;12088;53.078;8.720;2023-07-02T00:57:29;15.60;99.90
23815;DHT22;12088;53.078;8.720;2023-07-02T00:59:58;15.60;99.90
23815;DHT22;12088;53.078;8.720;2023-07-02T01:02:28;15.60;99.90
23815;DHT22;12088;53.078;8.720;2023-07-02T01:04:55;15.60;99.90
23815;DHT22;12088;53.078;8.720;2023-07-02T01:07:23;15.70;99.90
23815;DHT22;12088;53.078;8.720;2023-07-02T01:09:48;15.60;99.90
23815;DHT22;12088;53.078;8.720;2023-07-02T01:12:15;15.60;99.90
23815;DHT22;12088;53.078;8.720;2023-07-02T01:14:46;15.60;99.90
23815;DHT22;12088;53.078;8.720;2023-07-02T01:17:12;15.60;99.90
23815;DHT22;12088;53.078;8.720;2023-07-02T01:19:45;15.60;99.90
23815;DHT22;12088;53.078;8.720;2023-07-02T01:22:20;15.60;99.90
23815;DHT22;12088;53.078;8.720;2023-07-02T01:24:46;15.60;99.90
23815;DHT22;12088;53.078;8.720;2023-07-02T01:27:13;15.70;99.90
23815;DHT22;12088;53.078;8.720;2023-07-02T01:29:40;15.60;99.90
23815;DHT22;12088;53.078;8.720;2023-07-02T01:32:06;15.60;99.90
23815;DHT22;12088;53.078;8.720;2023-07-02T01:34:32;15.70;99.90
23815;DHT22;12088;53.078;8.720;2023-07-02T01:36:57;15.70;99.90
23815;DHT22;12088;53.078;8.720;2023-07-02T01:39:23;15.60;99.90
23815;DHT22;12088;53.078;8.720;2023-07-02T01:41:54;15.60;99.90
23815;DHT22;12088;53.078;8.720;2023-07-02T01:44:21;15.60;99.90
23815;DHT22;12088;53.078;8.720;2023-07-02T01:46:47;15.60;99.90
23815;DHT22;12088;53.078;8.720;2023-07-02T01:49:16;15.50;99.90
23815;DHT22;12088;53.078;8.720;2023-07-02T01:51:52;15.50;99.90
23815;DHT22;12088;53.078;8.720;2023-07-02T01:54:19;15.50;99.90
23815;DHT22;12088;53.078;8.720;2023-07-02T01:56:44;15.40;99.90
23815;DHT22;12088;53.078;8.720;2023-07-02T01:59:10;15.40;99.90
23815;DHT22;12088;53.078;8.720;2023-07-02T02:01:36;15.40;99.90
23815;DHT22;12088;53.078;8.720;2023-07-02T02:04:06;15.30;99.90
23815;DHT22;12088;53.078;8.720;2023-07-02T02:06:31;15.20;99.90
23815;DHT22;12088;53.078;8.720;2023-07-02T02:08:57;15.20;99.90
23815;DHT22;12088;53.078;8.720;2023-07-02T02:11:22;15.10;99.90
23815;DHT22;12088;53.078;8.720;2023-07-02T02:13:48;15.00;99.90
23815;DHT22;12088;53.078;8.720;2023-07-02T02:16:14;15.00;99.90
23815;DHT22;12088;53.078;8.720;2023-07-02T02:18:39;14.90;99.90
23815;DHT22;12088;53.078;8.720;2023-07-02T02:21:05;14.90;99.90
23815;DHT22;12088;53.078;8.720;2023-07-02T02:23:30;14.90;99.90
23815;DHT22;12088;53.078;8.720;2023-07-02T02:25:56;14.80;99.90
23815;DHT22;12088;53.078;8.720;2023-07-02T02:28:21;14.80;99.90
23815;DHT22;12088;53.078;8.720;2023-07-02T02:30:47;14.70;99.90
23815;DHT22;12088;53.078;8.720;2023-07-02T02:33:12;14.70;99.90
23815;DHT22;12088;53.078;8.720;2023-07-02T02:35:38;14.70;99.90
23815;DHT22;12088;53.078;8.720;2023-07-02T02:38:03;14.70;99.90
23815;DHT22;12088;53.078;8.720;2023-07-02T02:40:30;14.80;99.90
23815;DHT22;12088;53.078;8.720;2023-07-02T02:42:55;14.80;99.90
23815;DHT22;12088;53.078;8.720;2023-07-02T02:45:21;14.80;99.90
23815;DHT22;12088;53.078;8.720;2023-07-02T02:47:47;14.80;99.90
23815;DHT22;12088;53.078;8.720;2023-07-02T02:50:13;14.80;99.90
23815;DHT22;12088;53.078;8.720;2023-07-02T02:52:39;14.80;99.90
23815;DHT22;12088;53.078;8.720;2023-07-02T02:55:06;14.80;99.90
23815;DHT22;12088;53.078;8.720;2023-07-02T02:57:32;14.90;99.90
23815;DHT22;12088;53.078;8.720;2023-07-02T02:59:58;14.80;99.90
23815;DHT22;12088;53.078;8.720;2023-07-02T03:02:24;14.90;99.90
23815;DHT22;12088;53.078;8.720;2023-07-02T03:04:49;14.80;99.90
23815;DHT22;12088;53.078;8.720;2023-07-02T03:07:15;14.80;99.90
23815;DHT22;12088;53.078;8.720;2023-07-02T03:09:41;14.80;99.90
23815;DHT22;12088;53.078;8.720;2023-07-02T03:12:06;14.80;99.90
23815;DHT22;12088;53.078;8.720;2023-07-02T03:14:32;14.70;99.90
23815;DHT22;12088;53.078;8.720;2023-07-02T03:16:58;14.70;99.90
23815;DHT22;12088;53.078;8.720;2023-07-02T03:19:24;14.60;99.90
23815;DHT22;12088;53.078;8.720;2023-07-02T03:21:49;14.60;99.90
23815;DHT22;12088;53.078;8.720;2023-07-02T03:24:15;14.60;99.90
23815;DHT22;12088;53.078;8.720;2023-07-02T03:26:42;14.50;99.90
23815;DHT22;12088;53.078;8.720;2023-07-02T03:29:08;14.50;99.90
23815;DHT22;12088;53.078;8.720;2023-07-02T03:31:33;14.50;99.90
23815;DHT22;12088;53.078;8.720;2023-07-02T03:34:02;14.50;99.90
23815;DHT22;12088;53.078;8.720;2023-07-02T03:36:28;14.50;99.90
23815;DHT22;12088;53.078;8.720;2023-07-02T03:38:54;14.50;99.90
23815;DHT22;12088;53.078;8.720;2023-07-02T03:41:19;14.50;99.90
23815;DHT22;12088;53.078;8.720;2023-07-02T03:43:44;14.40;99.90
23815;DHT22;12088;53.078;8.720;2023-07-02T03:46:10;14.50;99.90
23815;DHT22;12088;53.078;8.720;2023-07-02T03:48:35;14.50;99.90
23815;DHT22;12088;53.078;8.720;2023-07-02T03:51:01;14.50;99.90
23815;DHT22;12088;53.078;8.720;2023-07-02T03:53:28;14.50;99.90
23815;DHT22;12088;53.078;8.720;2023-07-02T03:55:54;14.50;99.90
23815;DHT22;12088;53.078;8.720;2023-07-02T03:58:19;14.50;99.90
23815;DHT22;12088;53.078;8.720;2023-07-02T04:00:44;14.50;99.90
23815;DHT22;12088;53.078;8.720;2023-07-02T04:03:10;14.40;99.90
23815;DHT22;12088;53.078;8.720;2023-07-02T04:05:35;14.50;99.90
23815;DHT22;12088;53.078;8.720;2023-07-02T04:08:01;14.50;99.90
23815;DHT22;12088;53.078;8.720;2023-07-02T04:10:26;14.50;99.90
23815;DHT22;12088;53.078;8.720;2023-07-02T04:12:52;14.50;99.90
23815;DHT22;12088;53.078;8.720;2023-07-02T04:15:17;14.50;99.90
23815;DHT22;12088;53.078;8.720;2023-07-02T04:17:43;14.50;99.90
23815;DHT22;12088;53.078;8.720;2023-07-02T04:20:09;14.50;99.90
23815;DHT22;12088;53.078;8.720;2023-07-02T04:22:35;14.50;99.90
23815;DHT22;12088;53.078;8.720;2023-07-02T04:25:00;14.50;99.90
23815;DHT22;12088;53.078;8.720;2023-07-02T04:27:26;14.50;99.90
23815;DHT22;12088;53.078;8.720;2023-07-02T04:29:53;14.50;99.90
23815;DHT22;12088;53.078;8.720;2023-07-02T04:32:18;14.50;99.90
23815;DHT22;12088;53.078;8.720;2023-07-02T04:34:44;14.60;99.90
23815;DHT22;12088;53.078;8.720;2023-07-02T04:37:10;14.70;99.90
23815;DHT22;12088;53.078;8.720;2023-07-02T04:39:35;14.60;99.90
23815;DHT22;12088;53.078;8.720;2023-07-02T04:42:01;14.60;99.90
23815;DHT22;12088;53.078;8.720;2023-07-02T04:44:27;14.70;99.90
23815;DHT22;12088;53.078;8.720;2023-07-02T04:46:59;14.70;99.90
23815;DHT22;12088;53.078;8.720;2023-07-02T04:49:25;14.80;99.90
23815;DHT22;12088;53.078;8.720;2023-07-02T04:51:50;14.80;99.90
23815;DHT22;12088;53.078;8.720;2023-07-02T04:54:16;14.80;99.90
23815;DHT22;12088;53.078;8.720;2023-07-02T04:56:41;14.90;99.90
23815;DHT22;12088;53.078;8.720;2023-07-02T04:59:07;14.90;99.90
23815;DHT22;12088;53.078;8.720;2023-07-02T05:01:32;14.90;99.90
23815;DHT22;12088;53.078;8.720;2023-07-02T05:03:58;15.00;99.90
23815;DHT22;12088;53.078;8.720;2023-07-02T05:06:23;15.00;99.90
23815;DHT22;12088;53.078;8.720;2023-07-02T05:08:49;15.10;99.90
23815;DHT22;12088;53.078;8.720;2023-07-02T05:11:14;15.10;99.90
23815;DHT22;12088;53.078;8.720;2023-07-02T05:13:40;15.20;99.90
23815;DHT22;12088;53.078;8.720;2023-07-02T05:16:05;15.20;99.90
23815;DHT22;12088;53.078;8.720;2023-07-02T05:18:31;15.20;99.90
23815;DHT22;12088;53.078;8.720;2023-07-02T05:20:56;15.30;99.90
23815;DHT22;12088;53.078;8.720;2023-07-02T05:23:21;15.30;99.90
23815;DHT22;12088;53.078;8.720;2023-07-02T05:25:47;15.30;99.90
23815;DHT22;12088;53.078;8.720;2023-07-02T05:28:12;15.30;99.90
23815;DHT22;12088;53.078;8.720;2023-07-02T05:30:38;15.40;99.90
23815;DHT22;12088;53.078;8.720;2023-07-02T05:33:03;15.50;99.90
23815;DHT22;12088;53.078;8.720;2023-07-02T05:35:29;15.60;99.90
23815;DHT22;12088;53.078;8.720;2023-07-02T05:37:54;15.60;99.90
23815;DHT22;12088;53.078;8.720;2023-07-02T05:40:20;15.60;99.90
23815;DHT22;12088;53.078;8.720;2023-07-02T05:42:45;15.60;99.90
23815;DHT22;12088;53.078;8.720;2023-07-02T05:45:11;15.70;99.90
23815;DHT22;12088;53.078;8.720;2023-07-02T05:47:36;15.80;99.90
23815;DHT22;12088;53.078;8.720;2023-07-02T05:50:02;15.80;99.90
23815;DHT22;12088;53.078;8.720;2023-07-02T05:52:27;15.90;99.90
23815;DHT22;12088;53.078;8.720;2023-07-02T05:54:53;16.00;99.90
23815;DHT22;12088;53.078;8.720;2023-07-02T05:57:18;16.00;99.90
23815;DHT22;12088;53.078;8.720;2023-07-02T05:59:44;16.00;99.90
23815;DHT22;12088;53.078;8.720;2023-07-02T06:02:09;16.10;99.90
23815;DHT22;12088;53.078;8.720;2023-07-02T06:04:34;16.10;99.90
23815;DHT22;12088;53.078;8.720;2023-07-02T06:07:00;16.20;99.90
23815;DHT22;12088;53.078;8.720;2023-07-02T06:09:25;16.20;99.90
23815;DHT22;12088;53.078;8.720;2023-07-02T06:11:51;16.30;99.90
23815;DHT22;12088;53.078;8.720;2023-07-02T06:14:16;16.30;99.90
23815;DHT22;12088;53.078;8.720;2023-07-02T06:16:42;16.40;99.90
23815;DHT22;12088;53.078;8.720;2023-07-02T06:19:07;16.40;99.90
23815;DHT22;12088;53.078;8.720;2023-07-02T06:21:33;16.40;99.90
23815;DHT22;12088;53.078;8.720;2023-07-02T06:23:58;16.50;99.90
23815;DHT22;12088;53.078;8.720;2023-07-02T06:26:24;16.60;99.90
23815;DHT22;12088;53.078;8.720;2023-07-02T06:28:49;16.60;99.90
23815;DHT22;12088;53.078;8.720;2023-07-02T06:31:15;16.60;99.90
23815;DHT22;12088;53.078;8.720;2023-07-02T06:33:40;16.80;99.90
23815;DHT22;12088;53.078;8.720;2023-07-02T06:36:07;16.80;99.90
23815;DHT22;12088;53.078;8.720;2023-07-02T06:38:33;16.90;99.90
23815;DHT22;12088;53.078;8.720;2023-07-02T06:40:58;17.20;99.90
23815;DHT22;12088;53.078;8.720;2023-07-02T06:43:24;17.30;99.90
23815;DHT22;12088;53.078;8.720;2023-07-02T06:45:49;17.40;99.90
23815;DHT22;12088;53.078;8.720;2023-07-02T06:48:15;17.30;99.90
23815;DHT22;12088;53.078;8.720;2023-07-02T06:50:46;17.40;99.90
23815;DHT22;12088;53.078;8.720;2023-07-02T06:53:12;17.50;99.90
23815;DHT22;12088;53.078;8.720;2023-07-02T06:55:38;17.70;99.90
23815;DHT22;12088;53.078;8.720;2023-07-02T06:58:05;17.80;99.90
23815;DHT22;12088;53.078;8.720;2023-07-02T07:00:32;17.80;99.90
23815;DHT22;12088;53.078;8.720;2023-07-02T07:03:01;17.90;99.90
23815;DHT22;12088;53.078;8.720;2023-07-02T07:05:27;17.80;99.90
23815;DHT22;12088;53.078;8.720;2023-07-02T07:07:52;17.70;99.90
23815;DHT22;12088;53.078;8.720;2023-07-02T07:10:18;17.90;99.90
23815;DHT22;12088;53.078;8.720;2023-07-02T07:12:45;17.90;99.90
23815;DHT22;12088;53.078;8.720;2023-07-02T07:15:11;18.00;99.90
23815;DHT22;12088;53.078;8.720;2023-07-02T07:17:36;18.10;99.90
23815;DHT22;12088;53.078;8.720;2023-07-02T07:20:02;18.40;99.90
23815;DHT22;12088;53.078;8.720;2023-07-02T07:22:30;17.90;99.90
23815;DHT22;12088;53.078;8.720;2023-07-02T07:24:55;17.90;99.90
23815;DHT22;12088;53.078;8.720;2023-07-02T07:27:21;18.10;99.90
23815;DHT22;12088;53.078;8.720;2023-07-02T07:29:46;17.80;99.90
23815;DHT22;12088;53.078;8.720;2023-07-02T07:32:12;17.90;99.90
23815;DHT22;12088;53.078;8.720;2023-07-02T07:34:37;18.20;99.90
23815;DHT22;12088;53.078;8.720;2023-07-02T07:37:03;18.50;99.90
23815;DHT22;12088;53.078;8.720;2023-07-02T07:39:29;18.10;99.90
23815;DHT22;12088;53.078;8.720;2023-07-02T07:41:55;17.90;99.90
23815;DHT22;12088;53.078;8.720;2023-07-02T07:44:20;18.20;99.90
23815;DHT22;12088;53.078;8.720;2023-07-02T07:46:46;18.20;99.90
23815;DHT22;12088;53.078;8.720;2023-07-02T07:49:12;18.10;99.90
23815;DHT22;12088;53.078;8.720;2023-07-02T07:51:38;18.30;99.90
23815;DHT22;12088;53.078;8.720;2023-07-02T07:54:04;18.60;99.90
23815;DHT22;12088;53.078;8.720;2023-07-02T07:56:29;19.20;99.90
23815;DHT22;12088;53.078;8.720;2023-07-02T07:58:55;19.70;99.90
23815;DHT22;12088;53.078;8.720;2023-07-02T08:01:20;19.80;99.90
23815;DHT22;12088;53.078;8.720;2023-07-02T08:03:46;19.90;99.90
23815;DHT22;12088;53.078;8.720;2023-07-02T08:06:12;20.00;99.90
23815;DHT22;12088;53.078;8.720;2023-07-02T08:08:37;20.00;99.90
23815;DHT22;12088;53.078;8.720;2023-07-02T08:11:03;20.00;99.90
23815;DHT22;12088;53.078;8.720;2023-07-02T08:13:28;20.10;99.90
23815;DHT22;12088;53.078;8.720;2023-07-02T08:15:54;20.50;99.90
23815;DHT22;12088;53.078;8.720;2023-07-02T08:18:20;20.30;99.90
23815;DHT22;12088;53.078;8.720;2023-07-02T08:20:45;20.60;99.90
23815;DHT22;12088;53.078;8.720;2023-07-02T08:23:11;20.60;99.90
23815;DHT22;12088;53.078;8.720;2023-07-02T08:25:37;21.00;99.90
23815;DHT22;12088;53.078;8.720;2023-07-02T08:28:02;20.90;99.90
23815;DHT22;12088;53.078;8.720;2023-07-02T08:30:28;20.80;99.90
23815;DHT22;12088;53.078;8.720;2023-07-02T08:32:54;20.70;99.90
23815;DHT22;12088;53.078;8.720;2023-07-02T08:35:20;20.90;99.90
23815;DHT22;12088;53.078;8.720;2023-07-02T08:37:46;21.20;99.90
23815;DHT22;12088;53.078;8.720;2023-07-02T08:40:18;21.40;99.90
23815;DHT22;12088;53.078;8.720;2023-07-02T08:42:47;21.50;99.90
23815;DHT22;12088;53.078;8.720;2023-07-02T08:45:14;21.70;99.90
23815;DHT22;12088;53.078;8.720;2023-07-02T08:47:41;22.00;99.90
23815;DHT22;12088;53.078;8.720;2023-07-02T08:50:07;22.30;99.90
23815;DHT22;12088;53.078;8.720;2023-07-02T08:52:32;22.70;99.90
23815;DHT22;12088;53.078;8.720;2023-07-02T08:54:58;23.50;99.90
23815;DHT22;12088;53.078;8.720;2023-07-02T08:57:24;24.10;99.90
23815;DHT22;12088;53.078;8.720;2023-07-02T08:59:49;23.30;99.90
23815;DHT22;12088;53.078;8.720;2023-07-02T09:02:17;22.00;99.90
23815;DHT22;12088;53.078;8.720;2023-07-02T09:04:42;20.80;99.90
23815;DHT22;12088;53.078;8.720;2023-07-02T09:07:10;20.00;99.90
23815;DHT22;12088;53.078;8.720;2023-07-02T09:09:46;19.70;99.90
23815;DHT22;12088;53.078;8.720;2023-07-02T09:12:31;20.60;99.90
23815;DHT22;12088;53.078;8.720;2023-07-02T09:14:59;20.90;99.90
23815;DHT22;12088;53.078;8.720;2023-07-02T09:17:32;20.30;99.90
23815;DHT22;12088;53.078;8.720;2023-07-02T09:19:59;20.30;99.90
23815;DHT22;12088;53.078;8.720;2023-07-02T09:22:29;21.20;99.90
23815;DHT22;12088;53.078;8.720;2023-07-02T09:24:56;22.80;99.90
23815;DHT22;12088;53.078;8.720;2023-07-02T09:27:36;23.30;99.90
23815;DHT22;12088;53.078;8.720;2023-07-02T09:30:13;24.00;99.90
23815;DHT22;12088;53.078;8.720;2023-07-02T09:32:39;24.90;99.90
23815;DHT22;12088;53.078;8.720;2023-07-02T09:35:05;24.30;99.90
23815;DHT22;12088;53.078;8.720;2023-07-02T09:37:31;22.90;99.90
23815;DHT22;12088;53.078;8.720;2023-07-02T09:39:57;21.40;99.90
23815;DHT22;12088;53.078;8.720;2023-07-02T09:42:25;20.80;99.90
23815;DHT22;12088;53.078;8.720;2023-07-02T09:44:59;20.50;99.90
23815;DHT22;12088;53.078;8.720;2023-07-02T09:47:26;22.00;99.90
23815;DHT22;12088;53.078;8.720;2023-07-02T09:49:59;23.60;99.90
23815;DHT22;12088;53.078;8.720;2023-07-02T09:52:27;24.90;99.90
23815;DHT22;12088;53.078;8.720;2023-07-02T09:54:53;25.80;99.90
23815;DHT22;12088;53.078;8.720;2023-07-02T09:57:18;26.60;99.90
23815;DHT22;12088;53.078;8.720;2023-07-02T09:59:44;27.30;99.90
23815;DHT22;12088;53.078;8.720;2023-07-02T10:02:10;27.60;99.90
23815;DHT22;12088;53.078;8.720;2023-07-02T10:04:45;27.90;99.90
23815;DHT22;12088;53.078;8.720;2023-07-02T10:07:11;27.90;99.90
23815;DHT22;12088;53.078;8.720;2023-07-02T10:09:43;28.70;99.90
23815;DHT22;12088;53.078;8.720;2023-07-02T10:14:44;24.90;99.90
23815;DHT22;12088;53.078;8.720;2023-07-02T10:17:10;25.20;99.90
23815;DHT22;12088;53.078;8.720;2023-07-02T10:19:35;25.10;99.90
23815;DHT22;12088;53.078;8.720;2023-07-02T10:22:02;24.70;99.90
23815;DHT22;12088;53.078;8.720;2023-07-02T10:24:28;23.90;99.90
23815;DHT22;12088;53.078;8.720;2023-07-02T10:27:01;23.20;99.90
23815;DHT22;12088;53.078;8.720;2023-07-02T10:29:28;22.50;99.90
23815;DHT22;12088;53.078;8.720;2023-07-02T10:31:55;22.30;99.90
23815;DHT22;12088;53.078;8.720;2023-07-02T10:34:47;22.30;99.90
23815;DHT22;12088;53.078;8.720;2023-07-02T10:37:13;23.30;99.90
23815;DHT22;12088;53.078;8.720;2023-07-02T10:39:39;24.30;99.90
23815;DHT22;12088;53.078;8.720;2023-07-02T10:42:09;25.30;99.90
23815;DHT22;12088;53.078;8.720;2023-07-02T10:44:46;26.30;99.90
23815;DHT22;12088;53.078;8.720;2023-07-02T10:47:12;27.30;99.90
23815;DHT22;12088;53.078;8.720;2023-07-02T10:49:38;26.20;99.90
23815;DHT22;12088;53.078;8.720;2023-07-02T10:52:04;24.60;99.90
23815;DHT22;12088;53.078;8.720;2023-07-02T10:54:43;23.00;99.90
23815;DHT22;12088;53.078;8.720;2023-07-02T10:57:10;21.80;99.90
23815;DHT22;12088;53.078;8.720;2023-07-02T10:59:37;21.20;99.90
23815;DHT22;12088;53.078;8.720;2023-07-02T11:02:03;21.20;99.90
23815;DHT22;12088;53.078;8.720;2023-07-02T11:04:30;21.40;99.90
23815;DHT22;12088;53.078;8.720;2023-07-02T11:06:56;22.80;99.90
23815;DHT22;12088;53.078;8.720;2023-07-02T11:09:22;25.40;99.90
23815;DHT22;12088;53.078;8.720;2023-07-02T11:12:00;26.90;99.90
23815;DHT22;12088;53.078;8.720;2023-07-02T11:14:30;28.30;99.90
23815;DHT22;12088;53.078;8.720;2023-07-02T11:16:56;29.10;99.90
23815;DHT22;12088;53.078;8.720;2023-07-02T11:19:22;28.90;99.90
23815;DHT22;12088;53.078;8.720;2023-07-02T11:21:55;27.30;99.90
23815;DHT22;12088;53.078;8.720;2023-07-02T11:24:33;25.80;99.90
23815;DHT22;12088;53.078;8.720;2023-07-02T11:27:00;24.90;99.90
23815;DHT22;12088;53.078;8.720;2023-07-02T11:29:27;26.10;99.90
23815;DHT22;12088;53.078;8.720;2023-07-02T11:31:53;25.70;99.90
23815;DHT22;12088;53.078;8.720;2023-07-02T11:34:21;27.00;99.90
23815;DHT22;12088;53.078;8.720;2023-07-02T11:36:47;25.70;99.90
23815;DHT22;12088;53.078;8.720;2023-07-02T11:39:13;24.10;99.90
23815;DHT22;12088;53.078;8.720;2023-07-02T11:41:42;23.40;99.90
23815;DHT22;12088;53.078;8.720;2023-07-02T11:44:08;24.20;99.90
23815;DHT22;12088;53.078;8.720;2023-07-02T11:46:34;25.10;99.90
23815;DHT22;12088;53.078;8.720;2023-07-02T11:49:00;25.30;99.90
23815;DHT22;12088;53.078;8.720;2023-07-02T11:51:26;26.10;99.90
23815;DHT22;12088;53.078;8.720;2023-07-02T11:53:51;27.60;99.90
23815;DHT22;12088;53.078;8.720;2023-07-02T11:56:17;28.90;99.90
23815;DHT22;12088;53.078;8.720;2023-07-02T11:58:42;29.50;99.90
23815;DHT22;12088;53.078;8.720;2023-07-02T12:01:08;29.10;99.90
23815;DHT22;12088;53.078;8.720;2023-07-02T12:03:34;29.40;99.90
23815;DHT22;12088;53.078;8.720;2023-07-02T12:05:59;29.90;99.90
23815;DHT22;12088;53.078;8.720;2023-07-02T12:08:25;29.20;99.90
23815;DHT22;12088;53.078;8.720;2023-07-02T12:10:51;29.20;99.90
23815;DHT22;12088;53.078;8.720;2023-07-02T12:13:16;29.30;99.90
23815;DHT22;12088;53.078;8.720;2023-07-02T12:15:42;29.80;99.90
23815;DHT22;12088;53.078;8.720;2023-07-02T12:18:09;30.10;99.90
23815;DHT22;12088;53.078;8.720;2023-07-02T12:20:34;30.70;99.90
23815;DHT22;12088;53.078;8.720;2023-07-02T12:23:00;30.50;99.90
23815;DHT22;12088;53.078;8.720;2023-07-02T12:25:26;30.50;99.90
23815;DHT22;12088;53.078;8.720;2023-07-02T12:27:51;30.80;99.90
23815;DHT22;12088;53.078;8.720;2023-07-02T12:30:17;30.30;99.90
23815;DHT22;12088;53.078;8.720;2023-07-02T12:32:44;30.30;99.90
23815;DHT22;12088;53.078;8.720;2023-07-02T12:35:10;29.90;99.90
23815;DHT22;12088;53.078;8.720;2023-07-02T12:37:42;29.90;99.90
23815;DHT22;12088;53.078;8.720;2023-07-02T12:40:08;29.60;99.90
23815;DHT22;12088;53.078;8.720;2023-07-02T12:42:33;27.90;99.90
23815;DHT22;12088;53.078;8.720;2023-07-02T12:44:59;26.90;99.90
23815;DHT22;12088;53.078;8.720;2023-07-02T12:47:24;26.40;99.90
23815;DHT22;12088;53.078;8.720;2023-07-02T12:49:50;26.30;99.90
23815;DHT22;12088;53.078;8.720;2023-07-02T12:52:15;27.40;99.90
23815;DHT22;12088;53.078;8.720;2023-07-02T12:54:41;28.50;99.90
23815;DHT22;12088;53.078;8.720;2023-07-02T12:57:06;29.00;99.90
23815;DHT22;12088;53.078;8.720;2023-07-02T12:59:32;29.70;99.90
23815;DHT22;12088;53.078;8.720;2023-07-02T13:01:58;28.70;99.90
23815;DHT22;12088;53.078;8.720;2023-07-02T13:04:23;26.50;99.90
23815;DHT22;12088;53.078;8.720;2023-07-02T13:06:49;25.30;99.90
23815;DHT22;12088;53.078;8.720;2023-07-02T13:09:14;24.90;99.90
23815;DHT22;12088;53.078;8.720;2023-07-02T13:11:40;25.30;99.90
23815;DHT22;12088;53.078;8.720;2023-07-02T13:14:05;26.20;99.90
23815;DHT22;12088;53.078;8.720;2023-07-02T13:16:31;26.70;99.90
23815;DHT22;12088;53.078;8.720;2023-07-02T13:18:56;27.40;99.90
23815;DHT22;12088;53.078;8.720;2023-07-02T13:21:22;26.80;99.90
23815;DHT22;12088;53.078;8.720;2023-07-02T13:23:48;25.30;99.90
23815;DHT22;12088;53.078;8.720;2023-07-02T13:26:13;24.30;99.90
23815;DHT22;12088;53.078;8.720;2023-07-02T13:28:39;25.10;99.90
23815;DHT22;12088;53.078;8.720;2023-07-02T13:31:04;27.20;99.90
23815;DHT22;12088;53.078;8.720;2023-07-02T13:33:30;26.70;99.90
23815;DHT22;12088;53.078;8.720;2023-07-02T13:35:56;25.70;99.90
23815;DHT22;12088;53.078;8.720;2023-07-02T13:38:22;24.70;99.90
23815;DHT22;12088;53.078;8.720;2023-07-02T13:40:47;24.00;99.90
23815;DHT22;12088;53.078;8.720;2023-07-02T13:43:13;23.70;99.90
23815;DHT22;12088;53.078;8.720;2023-07-02T13:45:39;24.60;99.90
23815;DHT22;12088;53.078;8.720;2023-07-02T13:48:04;26.20;99.90
23815;DHT22;12088;53.078;8.720;2023-07-02T13:50:30;27.20;99.90
23815;DHT22;12088;53.078;8.720;2023-07-02T13:52:56;25.60;99.90
23815;DHT22;12088;53.078;8.720;2023-07-02T13:55:21;24.50;99.90
23815;DHT22;12088;53.078;8.720;2023-07-02T13:57:53;25.00;99.90
23815;DHT22;12088;53.078;8.720;2023-07-02T14:00:20;25.80;99.90
23815;DHT22;12088;53.078;8.720;2023-07-02T14:02:45;25.30;99.90
23815;DHT22;12088;53.078;8.720;2023-07-02T14:05:11;24.30;99.90
23815;DHT22;12088;53.078;8.720;2023-07-02T14:07:36;23.60;99.90
23815;DHT22;12088;53.078;8.720;2023-07-02T14:10:02;23.30;99.90
23815;DHT22;12088;53.078;8.720;2023-07-02T14:12:28;23.20;99.90
23815;DHT22;12088;53.078;8.720;2023-07-02T14:14:53;23.80;99.90
23815;DHT22;12088;53.078;8.720;2023-07-02T14:17:19;23.50;99.90
23815;DHT22;12088;53.078;8.720;2023-07-02T14:19:45;22.70;99.90
23815;DHT22;12088;53.078;8.720;2023-07-02T14:22:10;22.20;99.90
23815;DHT22;12088;53.078;8.720;2023-07-02T14:24:36;21.90;99.90
23815;DHT22;12088;53.078;8.720;2023-07-02T14:27:02;21.60;99.90
23815;DHT22;12088;53.078;8.720;2023-07-02T14:29:28;21.70;99.90
23815;DHT22;12088;53.078;8.720;2023-07-02T14:31:53;22.50;99.90
23815;DHT22;12088;53.078;8.720;2023-07-02T14:34:19;22.70;99.90
23815;DHT22;12088;53.078;8.720;2023-07-02T14:36:44;22.90;99.90
23815;DHT22;12088;53.078;8.720;2023-07-02T14:39:10;23.20;99.90
23815;DHT22;12088;53.078;8.720;2023-07-02T14:41:36;23.40;99.90
23815;DHT22;12088;53.078;8.720;2023-07-02T14:44:03;23.10;99.90
23815;DHT22;12088;53.078;8.720;2023-07-02T14:46:29;22.70;99.90
23815;DHT22;12088;53.078;8.720;2023-07-02T14:48:54;22.30;99.90
23815;DHT22;12088;53.078;8.720;2023-07-02T14:51:20;22.10;99.90
23815;DHT22;12088;53.078;8.720;2023-07-02T14:53:46;21.60;99.90
23815;DHT22;12088;53.078;8.720;2023-07-02T14:56:12;21.80;99.90
23815;DHT22;12088;53.078;8.720;2023-07-02T14:58:37;21.90;99.90
23815;DHT22;12088;53.078;8.720;2023-07-02T15:01:03;22.10;99.90
23815;DHT22;12088;53.078;8.720;2023-07-02T15:03:29;22.00;99.90
23815;DHT22;12088;53.078;8.720;2023-07-02T15:06:06;21.50;99.90
23815;DHT22;12088;53.078;8.720;2023-07-02T15:08:31;21.40;99.90
23815;DHT22;12088;53.078;8.720;2023-07-02T15:10:59;21.20;99.90
23815;DHT22;12088;53.078;8.720;2023-07-02T15:13:25;21.30;99.90
23815;DHT22;12088;53.078;8.720;2023-07-02T15:15:51;21.70;99.90
23815;DHT22;12088;53.078;8.720;2023-07-02T15:18:17;21.70;99.90
23815;DHT22;12088;53.078;8.720;2023-07-02T15:20:46;21.60;99.90
23815;DHT22;12088;53.078;8.720;2023-07-02T15:23:12;21.70;99.90
23815;DHT22;12088;53.078;8.720;2023-07-02T15:25:38;21.70;99.90
23815;DHT22;12088;53.078;8.720;2023-07-02T15:28:04;21.50;99.90